createdAt,value
2023-03-04T00:01:08.083Z,14.60
2023-03-04T00:03:37.707Z,12.70
2023-03-04T00:06:07.729Z,14.50
2023-03-04T00:08:37.124Z,14.10
2023-03-04T00:11:05.811Z,18.30
2023-03-04T00:13:35.018Z,12.70
2023-03-04T00:16:04.132Z,14.50
2023-03-04T00:18:32.991Z,14.40
2023-03-04T00:21:02.320Z,15.70
2023-03-04T00:23:31.406Z,13.80
2023-03-04T00:26:01.404Z,14.70
2023-03-04T00:28:31.056Z,18.50
2023-03-04T00:31:02.592Z,16.70
2023-03-04T00:33:32.692Z,16.50
2023-03-04T00:36:02.683Z,15.10
2023-03-04T00:38:32.408Z,11.70
2023-03-04T00:41:01.410Z,13.10
2023-03-04T00:43:30.506Z,15.90
2023-03-04T00:46:00.448Z,17.90
2023-03-04T00:48:29.309Z,16.20
2023-03-04T00:50:58.294Z,14.70
2023-03-04T00:53:29.525Z,16.50
2023-03-04T00:55:58.906Z,14.30
2023-03-04T00:58:27.877Z,15.70
2023-03-04T01:00:56.864Z,14.10
2023-03-04T01:03:30.122Z,15.00
2023-03-04T01:06:00.034Z,14.70
2023-03-04T01:08:29.068Z,15.50
2023-03-04T01:10:58.433Z,16.20
2023-03-04T01:13:27.542Z,15.90
2023-03-04T01:15:58.464Z,17.40
2023-03-04T01:18:27.782Z,15.90
2023-03-04T01:20:57.781Z,17.00
2023-03-04T01:23:29.845Z,15.10
2023-03-04T01:25:58.843Z,18.50
2023-03-04T01:28:27.981Z,15.30
2023-03-04T01:30:56.788Z,17.60
2023-03-04T01:33:28.890Z,18.40
2023-03-04T01:35:58.923Z,21.10
2023-03-04T01:38:28.726Z,15.90
2023-03-04T01:40:58.039Z,19.40
2023-03-04T01:43:28.874Z,19.40
2023-03-04T01:45:57.768Z,17.60
2023-03-04T01:48:30.101Z,18.20
2023-03-04T01:50:59.933Z,16.40
2023-03-04T01:53:30.661Z,15.40
2023-03-04T01:56:11.784Z,18.00
2023-03-04T01:58:40.428Z,17.00
2023-03-04T02:01:12.233Z,15.70
2023-03-04T02:03:41.998Z,16.30
2023-03-04T02:06:12.017Z,17.10
2023-03-04T02:08:40.899Z,19.80
2023-03-04T02:11:11.735Z,19.00
2023-03-04T02:13:41.035Z,23.60
2023-03-04T02:16:11.156Z,16.10
2023-03-04T02:18:58.172Z,18.90
2023-03-04T02:21:30.475Z,19.50
2023-03-04T02:24:16.033Z,17.30
2023-03-04T02:26:47.206Z,20.10
2023-03-04T02:29:19.746Z,17.70
2023-03-04T02:31:52.016Z,18.90
2023-03-04T02:34:21.617Z,19.80
2023-03-04T02:36:51.476Z,19.00
2023-03-04T02:39:20.439Z,18.00
2023-03-04T02:41:50.195Z,21.60
2023-03-04T02:44:21.502Z,15.10
2023-03-04T02:46:50.827Z,20.30
2023-03-04T02:49:19.980Z,20.20
2023-03-04T02:52:19.292Z,21.80
2023-03-04T02:54:49.403Z,19.60
2023-03-04T02:57:18.713Z,21.70
2023-03-04T02:59:54.813Z,16.10
2023-03-04T03:02:27.505Z,18.70
2023-03-04T03:04:56.745Z,21.40
2023-03-04T03:07:28.205Z,19.90
2023-03-04T03:09:57.082Z,20.40
2023-03-04T03:12:26.894Z,19.60
2023-03-04T03:14:55.380Z,21.50
2023-03-04T03:17:25.090Z,19.40
2023-03-04T03:19:54.124Z,20.20
2023-03-04T03:22:26.889Z,18.80
2023-03-04T03:24:57.089Z,17.50
2023-03-04T03:27:28.232Z,22.70
2023-03-04T03:29:57.535Z,20.80
2023-03-04T03:32:26.480Z,23.30
2023-03-04T03:34:55.507Z,16.50
2023-03-04T03:37:24.604Z,17.90
2023-03-04T03:39:53.804Z,17.90
2023-03-04T03:42:22.691Z,20.60
2023-03-04T03:44:51.706Z,21.80
2023-03-04T03:47:20.984Z,20.90
2023-03-04T03:49:49.810Z,20.40
2023-03-04T03:52:20.303Z,24.10
2023-03-04T03:54:49.957Z,18.90
2023-03-04T03:57:18.390Z,20.70
2023-03-04T03:59:47.378Z,21.00
2023-03-04T04:02:17.514Z,24.30
2023-03-04T04:04:46.287Z,26.10
2023-03-04T04:07:15.484Z,21.90
2023-03-04T04:12:15.835Z,20.50
2023-03-04T04:14:49.426Z,22.40
2023-03-04T04:17:18.234Z,30.00
2023-03-04T04:19:47.007Z,25.70
2023-03-04T04:22:17.740Z,25.50
2023-03-04T04:24:46.734Z,26.20
2023-03-04T04:27:15.771Z,26.50
2023-03-04T04:29:45.023Z,29.20
2023-03-04T04:32:14.017Z,25.70
2023-03-04T04:34:45.156Z,26.80
2023-03-04T04:37:14.184Z,23.90
2023-03-04T04:39:44.308Z,22.00
2023-03-04T04:42:14.597Z,25.40
2023-03-04T04:44:48.296Z,21.50
2023-03-04T04:47:17.636Z,22.00
2023-03-04T04:49:46.284Z,24.50
2023-03-04T04:52:15.174Z,20.70
2023-03-04T04:54:44.372Z,26.00
2023-03-04T04:57:13.605Z,22.50
2023-03-04T04:59:43.001Z,26.10
2023-03-04T05:02:13.073Z,27.40
2023-03-04T05:04:41.874Z,25.00
2023-03-04T05:07:10.581Z,25.90
2023-03-04T05:09:40.595Z,25.70
2023-03-04T05:12:09.570Z,26.30
2023-03-04T05:15:03.806Z,24.70
2023-03-04T05:17:32.850Z,27.20
2023-03-04T05:20:03.797Z,24.80
2023-03-04T05:22:34.076Z,23.20
2023-03-04T05:25:03.448Z,24.10
2023-03-04T05:27:32.620Z,26.70
2023-03-04T05:30:01.961Z,23.40
2023-03-04T05:32:31.437Z,22.20
2023-03-04T05:35:01.264Z,25.40
2023-03-04T05:37:30.939Z,21.80
2023-03-04T05:40:00.617Z,26.00
2023-03-04T05:44:59.399Z,24.10
2023-03-04T05:47:28.691Z,22.20
2023-03-04T05:49:58.258Z,24.00
2023-03-04T05:52:27.063Z,22.30
2023-03-04T05:54:56.249Z,22.20
2023-03-04T05:57:26.520Z,22.80
2023-03-04T05:59:55.376Z,24.90
2023-03-04T06:02:24.010Z,21.40
2023-03-04T06:04:53.343Z,23.90
2023-03-04T06:07:23.240Z,23.50
2023-03-04T06:09:53.692Z,24.40
2023-03-04T06:12:23.335Z,21.10
2023-03-04T06:14:53.346Z,24.50
2023-03-04T06:17:24.151Z,21.70
2023-03-04T06:19:53.165Z,21.50
2023-03-04T06:22:21.735Z,21.10
2023-03-04T06:24:50.698Z,23.00
2023-03-04T06:27:21.478Z,20.90
2023-03-04T06:29:52.018Z,21.30
2023-03-04T06:32:21.406Z,21.00
2023-03-04T06:34:52.721Z,20.10
2023-03-04T06:37:21.585Z,20.90
2023-03-04T06:39:52.811Z,21.60
2023-03-04T06:42:21.433Z,25.40
2023-03-04T06:44:50.443Z,18.10
2023-03-04T06:47:19.640Z,21.20
2023-03-04T06:49:48.269Z,19.50
2023-03-04T06:52:16.859Z,22.20
2023-03-04T06:54:47.531Z,20.20
2023-03-04T06:57:16.298Z,22.50
2023-03-04T06:59:45.592Z,19.30
2023-03-04T07:02:15.705Z,21.40
2023-03-04T07:04:44.396Z,19.70
2023-03-04T07:07:13.206Z,17.90
2023-03-04T07:09:42.665Z,22.20
2023-03-04T07:14:43.317Z,19.80
2023-03-04T07:17:13.387Z,18.60
2023-03-04T07:19:43.614Z,18.50
2023-03-04T07:22:12.461Z,19.40
2023-03-04T07:27:11.692Z,21.20
2023-03-04T07:29:42.908Z,19.90
2023-03-04T07:32:13.178Z,19.30
2023-03-04T07:34:42.626Z,22.20
2023-03-04T07:37:12.140Z,26.00
2023-03-04T07:39:41.336Z,21.50
2023-03-04T07:42:10.244Z,21.60
2023-03-04T07:44:41.616Z,22.70
2023-03-04T07:47:10.854Z,21.00
2023-03-04T07:49:39.512Z,22.10
2023-03-04T07:52:09.061Z,22.40
2023-03-04T07:54:37.979Z,22.20
2023-03-04T07:57:10.893Z,24.60
2023-03-04T07:59:40.014Z,20.50
2023-03-04T08:02:10.123Z,19.50
2023-03-04T08:04:39.402Z,21.80
2023-03-04T08:07:08.315Z,23.20
2023-03-04T08:12:07.864Z,21.50
2023-03-04T08:14:37.026Z,18.80
2023-03-04T08:17:15.150Z,20.50
2023-03-04T08:19:45.246Z,20.20
2023-03-04T08:22:16.734Z,21.00
2023-03-04T08:24:46.712Z,22.80
2023-03-04T08:27:15.837Z,19.50
2023-03-04T08:29:45.305Z,24.00
2023-03-04T08:32:14.520Z,21.30
2023-03-04T08:34:45.641Z,23.80
2023-03-04T08:37:18.513Z,21.40
2023-03-04T08:39:47.761Z,28.10
2023-03-04T08:42:17.415Z,23.50
2023-03-04T08:44:47.788Z,19.20
2023-03-04T08:49:45.806Z,24.00
2023-03-04T08:52:17.449Z,19.70
2023-03-04T08:54:46.239Z,22.30
2023-03-04T08:57:15.252Z,20.20
2023-03-04T08:59:44.598Z,20.10
2023-03-04T09:02:13.310Z,21.50
2023-03-04T09:04:42.116Z,20.70
2023-03-04T09:07:11.547Z,18.50
2023-03-04T09:09:40.975Z,21.10
2023-03-04T09:12:11.646Z,20.10
2023-03-04T09:14:42.354Z,18.70
2023-03-04T09:17:12.127Z,17.50
2023-03-04T09:19:41.291Z,21.50
2023-03-04T09:22:11.539Z,20.90
2023-03-04T09:24:40.818Z,26.30
2023-03-04T09:27:10.695Z,21.50
2023-03-04T09:29:40.216Z,22.80
2023-03-04T09:32:09.263Z,24.20
2023-03-04T09:34:40.288Z,23.30
2023-03-04T09:37:09.230Z,18.30
2023-03-04T09:39:40.164Z,28.60
2023-03-04T09:42:10.582Z,15.70
2023-03-04T09:44:41.165Z,22.30
2023-03-04T09:47:15.664Z,21.10
2023-03-04T09:49:46.490Z,19.50
2023-03-04T09:52:31.209Z,17.60
2023-03-04T09:55:22.658Z,18.10
2023-03-04T09:57:57.506Z,20.40
2023-03-04T10:00:43.851Z,15.70
2023-03-04T10:03:18.453Z,18.60
2023-03-04T10:05:51.969Z,15.30
2023-03-04T10:08:26.246Z,19.80
2023-03-04T10:10:55.686Z,18.40
2023-03-04T10:16:27.447Z,22.40
2023-03-04T10:19:00.602Z,20.00
2023-03-04T10:21:37.131Z,23.10
2023-03-04T10:24:13.907Z,16.40
2023-03-04T10:26:44.621Z,20.30
2023-03-04T10:29:15.896Z,18.10
2023-03-04T10:31:50.407Z,16.20
2023-03-04T10:34:19.767Z,19.10
2023-03-04T10:39:35.874Z,18.90
2023-03-04T10:42:24.541Z,14.90
2023-03-04T10:44:58.375Z,18.10
2023-03-04T10:47:31.810Z,18.10
2023-03-04T10:50:03.241Z,15.70
2023-03-04T10:52:50.831Z,19.20
2023-03-04T10:55:22.439Z,20.10
2023-03-04T10:58:01.978Z,16.40
2023-03-04T11:03:22.757Z,24.00
2023-03-04T11:05:54.127Z,25.90
2023-03-04T11:08:23.446Z,16.80
2023-03-04T11:10:55.469Z,14.20
2023-03-04T11:13:30.705Z,12.60
2023-03-04T11:16:27.419Z,20.30
2023-03-04T11:19:05.789Z,15.90
2023-03-04T11:21:40.171Z,16.60
2023-03-04T11:24:31.359Z,19.50
2023-03-04T11:27:12.868Z,26.20
2023-03-04T11:30:18.960Z,19.60
2023-03-04T11:32:50.283Z,16.70
2023-03-04T11:35:35.837Z,17.70
2023-03-04T11:38:23.126Z,16.10
2023-03-04T11:40:59.830Z,15.80
2023-03-04T11:43:36.510Z,15.00
2023-03-04T11:46:33.356Z,16.90
2023-03-04T11:49:27.136Z,27.10
2023-03-04T11:52:07.798Z,15.50
2023-03-04T11:55:19.654Z,13.30
2023-03-04T11:58:17.451Z,15.70
2023-03-04T12:01:00.334Z,11.50
2023-03-04T12:03:39.662Z,22.30
2023-03-04T12:06:46.856Z,16.40
2023-03-04T12:09:30.104Z,13.00
2023-03-04T12:12:24.168Z,20.40
2023-03-04T12:15:02.052Z,13.30
2023-03-04T12:18:10.966Z,11.20
2023-03-04T12:20:59.232Z,14.70
2023-03-04T12:23:30.023Z,17.80
2023-03-04T12:26:40.371Z,29.60
2023-03-04T12:29:17.919Z,14.30
2023-03-04T12:32:11.047Z,14.60
2023-03-04T12:35:23.170Z,20.50
2023-03-04T12:38:44.828Z,18.20
2023-03-04T12:41:24.483Z,11.70
2023-03-04T12:44:02.354Z,15.60
2023-03-04T12:46:39.960Z,17.30
2023-03-04T12:49:37.912Z,17.20
2023-03-04T12:52:17.048Z,15.20
2023-03-04T12:54:50.553Z,18.40
2023-03-04T12:57:48.649Z,15.20
2023-03-04T13:00:54.515Z,14.60
2023-03-04T13:03:45.674Z,15.50
2023-03-04T13:06:40.640Z,13.50
2023-03-04T13:09:34.790Z,21.90
2023-03-04T13:12:23.444Z,14.60
2023-03-04T13:15:09.432Z,16.40
2023-03-04T13:17:44.917Z,16.10
2023-03-04T13:20:34.520Z,14.80
2023-03-04T13:28:36.289Z,16.90
2023-03-04T13:31:14.693Z,21.00
2023-03-04T13:33:50.308Z,16.30
2023-03-04T13:36:28.477Z,18.70
2023-03-04T13:39:16.007Z,12.50
2023-03-04T13:41:52.570Z,21.20
2023-03-04T13:44:38.658Z,22.20
2023-03-04T13:47:30.655Z,24.70
2023-03-04T13:50:30.553Z,15.30
2023-03-04T13:53:21.805Z,12.50
2023-03-04T14:00:29.695Z,15.20
2023-03-04T14:03:27.077Z,17.10
2023-03-04T14:06:18.657Z,26.10
2023-03-04T14:08:49.707Z,18.70
2023-03-04T14:11:43.953Z,16.90
2023-03-04T14:14:16.913Z,13.80
2023-03-04T14:16:59.657Z,22.70
2023-03-04T14:19:39.448Z,27.30
2023-03-04T14:23:00.016Z,16.80
2023-03-04T14:31:06.197Z,25.30
2023-03-04T14:34:52.872Z,20.30
2023-03-04T14:41:55.860Z,15.60
2023-03-04T14:44:36.383Z,21.40
2023-03-04T14:47:17.667Z,24.60
2023-03-04T14:49:46.709Z,16.10
2023-03-04T14:52:30.439Z,17.00
2023-03-04T14:55:08.958Z,14.70
2023-03-04T14:57:43.160Z,18.80
2023-03-04T15:00:37.956Z,25.10
2023-03-04T15:03:23.345Z,16.60
2023-03-04T15:05:56.048Z,20.30
2023-03-04T15:08:36.866Z,13.60
2023-03-04T15:11:07.128Z,15.20
2023-03-04T15:13:57.366Z,24.30
2023-03-04T15:16:28.476Z,14.80
2023-03-04T15:19:00.028Z,19.50
2023-03-04T15:21:35.066Z,13.70
2023-03-04T15:24:06.454Z,14.20
2023-03-04T15:26:40.744Z,15.40
2023-03-04T15:31:48.538Z,14.90
2023-03-04T15:34:19.261Z,17.70
2023-03-04T15:36:50.141Z,13.00
2023-03-04T15:39:19.346Z,14.20
2023-03-04T15:41:48.748Z,16.90
2023-03-04T15:44:17.736Z,18.50
2023-03-04T15:46:46.928Z,15.50
2023-03-04T15:49:16.769Z,15.10
2023-03-04T15:51:46.475Z,12.70
2023-03-04T15:54:15.187Z,14.70
2023-03-04T15:56:43.974Z,12.10
2023-03-04T15:59:14.170Z,11.30
2023-03-04T16:01:43.155Z,10.80
2023-03-04T16:04:15.473Z,15.30
2023-03-04T16:06:44.964Z,11.70
2023-03-04T16:09:15.356Z,20.50
2023-03-04T16:11:47.879Z,12.30
2023-03-04T16:14:16.914Z,11.50
2023-03-04T16:16:47.225Z,12.30
2023-03-04T16:19:16.325Z,10.30
2023-03-04T16:21:50.044Z,10.80
2023-03-04T16:24:19.216Z,9.60
2023-03-04T16:26:48.008Z,12.20
2023-03-04T16:29:17.141Z,10.60
2023-03-04T16:31:45.890Z,10.00
2023-03-04T16:34:14.994Z,10.70
2023-03-04T16:36:45.746Z,12.00
2023-03-04T16:39:20.373Z,11.70
2023-03-04T16:41:49.647Z,10.70
2023-03-04T16:44:18.736Z,11.60
2023-03-04T16:46:47.783Z,9.70
2023-03-04T16:49:16.926Z,13.20
2023-03-04T16:51:47.469Z,11.50
2023-03-04T16:54:19.144Z,10.90
2023-03-04T16:56:47.797Z,12.50
2023-03-04T16:59:17.300Z,13.90
2023-03-04T17:01:46.289Z,16.10
2023-03-04T17:04:17.138Z,16.70
2023-03-04T17:06:46.747Z,18.20
2023-03-04T17:09:15.634Z,15.30
2023-03-04T17:11:46.671Z,15.00
2023-03-04T17:14:17.201Z,16.00
2023-03-04T17:16:46.196Z,17.20
2023-03-04T17:19:18.825Z,21.60
2023-03-04T17:21:48.891Z,19.90
2023-03-04T17:24:19.017Z,17.70
2023-03-04T17:26:48.410Z,17.60
2023-03-04T17:29:17.715Z,14.80
2023-03-04T17:31:46.849Z,19.40
2023-03-04T17:34:16.095Z,22.80
2023-03-04T17:36:45.915Z,20.10
2023-03-04T17:39:15.682Z,20.90
2023-03-04T17:41:44.828Z,18.50
2023-03-04T17:44:18.736Z,18.90
2023-03-04T17:46:50.941Z,19.30
2023-03-04T17:49:21.529Z,22.60
2023-03-04T17:51:50.853Z,17.90
2023-03-04T17:54:19.624Z,16.80
2023-03-04T17:56:48.510Z,18.70
2023-03-04T17:59:17.923Z,27.40
2023-03-04T18:01:46.759Z,27.30
2023-03-04T18:04:15.699Z,26.70
2023-03-04T18:06:44.497Z,20.00
2023-03-04T18:09:13.477Z,19.40
2023-03-04T18:11:42.993Z,22.50
2023-03-04T18:14:13.153Z,20.10
2023-03-04T18:16:47.485Z,21.00
2023-03-04T18:19:18.667Z,18.90
2023-03-04T18:21:52.683Z,19.80
2023-03-04T18:24:22.182Z,21.60
2023-03-04T18:26:51.478Z,20.90
2023-03-04T18:29:22.028Z,30.30
2023-03-04T18:31:51.553Z,22.70
2023-03-04T18:34:21.509Z,23.90
2023-03-04T18:36:52.364Z,21.90
2023-03-04T18:39:25.050Z,19.20
2023-03-04T18:41:54.309Z,22.30
2023-03-04T18:44:23.081Z,32.30
2023-03-04T18:46:54.308Z,23.00
2023-03-04T18:49:23.987Z,31.00
2023-03-04T18:51:53.816Z,25.30
2023-03-04T18:54:24.125Z,21.00
2023-03-04T18:56:57.930Z,23.00
2023-03-04T18:59:31.892Z,24.30
2023-03-04T19:02:02.185Z,24.90
2023-03-04T19:04:32.185Z,25.30
2023-03-04T19:07:01.170Z,23.00
2023-03-04T19:09:30.275Z,30.50
2023-03-04T19:12:00.131Z,25.10
2023-03-04T19:14:30.312Z,24.40
2023-03-04T19:17:00.845Z,25.10
2023-03-04T19:19:32.790Z,25.60
2023-03-04T19:22:02.109Z,28.00
2023-03-04T19:24:31.399Z,27.20
2023-03-04T19:27:03.225Z,29.00
2023-03-04T19:29:32.452Z,25.70
2023-03-04T19:32:03.651Z,30.40
2023-03-04T19:34:35.112Z,25.90
2023-03-04T19:37:03.627Z,28.30
2023-03-04T19:39:32.721Z,28.30
2023-03-04T19:42:01.617Z,30.10
2023-03-04T19:44:31.424Z,24.30
2023-03-04T19:47:00.685Z,25.60
2023-03-04T19:49:34.166Z,21.40
2023-03-04T19:52:03.023Z,30.40
2023-03-04T19:54:32.132Z,28.00
2023-03-04T19:57:00.714Z,22.90
2023-03-04T19:59:29.678Z,23.30
2023-03-04T20:02:01.532Z,24.70
2023-03-04T20:04:31.182Z,24.20
2023-03-04T20:07:04.745Z,36.60
2023-03-04T20:09:38.452Z,26.30
2023-03-04T20:12:07.099Z,25.70
2023-03-04T20:14:37.982Z,26.50
2023-03-04T20:17:07.372Z,24.30
2023-03-04T20:19:36.377Z,26.00
2023-03-04T20:22:07.309Z,38.90
2023-03-04T20:27:05.183Z,26.80
2023-03-04T20:29:36.372Z,33.60
2023-03-04T20:32:07.831Z,24.70
2023-03-04T20:34:37.690Z,29.90
2023-03-04T20:37:06.478Z,31.90
2023-03-04T20:39:35.882Z,26.10
2023-03-04T20:42:06.921Z,29.80
2023-03-04T20:44:39.324Z,30.80
2023-03-04T20:47:08.753Z,34.60
2023-03-04T20:49:37.304Z,44.90
2023-03-04T20:52:09.365Z,32.50
2023-03-04T20:54:39.007Z,29.90
2023-03-04T20:57:11.119Z,28.60
2023-03-04T20:59:41.928Z,26.60
2023-03-04T21:02:14.852Z,35.70
2023-03-04T21:04:44.326Z,36.10
2023-03-04T21:07:13.433Z,33.00
2023-03-04T21:09:45.952Z,31.10
2023-03-04T21:12:14.806Z,32.60
2023-03-04T21:14:45.746Z,29.10
2023-03-04T21:17:15.141Z,28.20
2023-03-04T21:19:44.240Z,29.30
2023-03-04T21:22:17.695Z,24.70
2023-03-04T21:24:46.760Z,23.40
2023-03-04T21:27:17.146Z,26.70
2023-03-04T21:29:46.875Z,22.80
2023-03-04T21:32:26.000Z,24.50
2023-03-04T21:34:55.681Z,23.60
2023-03-04T21:37:25.049Z,27.30
2023-03-04T21:39:55.384Z,26.40
2023-03-04T21:42:24.748Z,23.30
2023-03-04T21:44:59.273Z,24.70
2023-03-04T21:47:29.392Z,27.50
2023-03-04T21:49:58.289Z,27.50
2023-03-04T21:52:27.181Z,27.30
2023-03-04T21:54:56.382Z,24.70
2023-03-04T21:57:27.934Z,24.50
2023-03-04T21:59:58.772Z,24.90
2023-03-04T22:02:27.476Z,23.80
2023-03-04T22:04:59.730Z,23.00
2023-03-04T22:07:28.561Z,28.20
2023-03-04T22:09:59.966Z,34.60
2023-03-04T22:12:28.757Z,28.00
2023-03-04T22:14:58.778Z,27.10
2023-03-04T22:17:27.658Z,26.70
2023-03-04T22:19:56.865Z,29.50
2023-03-04T22:22:26.076Z,29.50
2023-03-04T22:24:55.528Z,32.00
2023-03-04T22:27:24.359Z,34.50
2023-03-04T22:29:53.766Z,34.70
2023-03-04T22:32:24.229Z,33.90
2023-03-04T22:34:56.173Z,37.00
2023-03-04T22:37:25.047Z,35.70
2023-03-04T22:39:53.742Z,38.70
2023-03-04T22:42:23.234Z,35.80
2023-03-04T22:44:51.923Z,36.80
2023-03-04T22:47:22.692Z,40.50
2023-03-04T22:49:51.548Z,39.70
2023-03-04T22:52:21.768Z,41.30
2023-03-04T22:54:50.661Z,49.60
2023-03-04T22:57:19.367Z,40.70
2023-03-04T22:59:49.356Z,26.30
2023-03-04T23:02:19.497Z,41.40
2023-03-04T23:04:48.667Z,42.60
2023-03-04T23:07:17.865Z,42.80
2023-03-04T23:09:47.060Z,38.60
2023-03-04T23:12:15.949Z,35.00
2023-03-04T23:14:45.203Z,34.90
2023-03-04T23:17:14.047Z,40.60
2023-03-04T23:19:42.825Z,38.20
2023-03-04T23:22:12.231Z,42.20
2023-03-04T23:24:42.758Z,46.80
2023-03-04T23:27:11.648Z,41.80
2023-03-04T23:29:41.572Z,39.10
2023-03-04T23:32:11.103Z,40.70
2023-03-04T23:34:44.672Z,46.30
2023-03-04T23:37:14.077Z,54.80
2023-03-04T23:39:43.169Z,51.90
2023-03-04T23:42:12.634Z,49.50
2023-03-04T23:44:41.971Z,47.20
2023-03-04T23:47:10.866Z,50.90
2023-03-04T23:49:40.163Z,41.40
2023-03-04T23:52:10.795Z,45.50
2023-03-04T23:54:39.580Z,44.90
2023-03-04T23:57:08.472Z,42.80
2023-03-04T23:59:38.554Z,39.40
